sensor_id;sensor_type;location;lat;lon;timestamp;P1;durP1;ratioP1;P2;durP2;ratioP2
76228;SDS011;65021;53.174;18.160;2024-02-23T00:02:18;9.50;;;4.40;;
76228;SDS011;65021;53.174;18.160;2024-02-23T00:04:44;10.30;;;5.50;;
76228;SDS011;65021;53.174;18.160;2024-02-23T00:07:10;10.10;;;4.90;;
76228;SDS011;65021;53.174;18.160;2024-02-23T00:09:37;12.50;;;6.10;;
76228;SDS011;65021;53.174;18.160;2024-02-23T00:12:03;10.90;;;5.60;;
76228;SDS011;65021;53.174;18.160;2024-02-23T00:14:30;12.30;;;5.90;;
76228;SDS011;65021;53.174;18.160;2024-02-23T00:17:02;12.20;;;5.90;;
76228;SDS011;65021;53.174;18.160;2024-02-23T00:19:29;12.00;;;6.80;;
76228;SDS011;65021;53.174;18.160;2024-02-23T00:21:56;12.00;;;6.30;;
76228;SDS011;65021;53.174;18.160;2024-02-23T00:24:23;9.40;;;5.20;;
76228;SDS011;65021;53.174;18.160;2024-02-23T00:26:49;9.20;;;5.20;;
76228;SDS011;65021;53.174;18.160;2024-02-23T00:29:17;14.90;;;6.10;;
76228;SDS011;65021;53.174;18.160;2024-02-23T00:31:43;11.90;;;6.00;;
76228;SDS011;65021;53.174;18.160;2024-02-23T00:34:13;10.20;;;5.50;;
76228;SDS011;65021;53.174;18.160;2024-02-23T00:36:40;11.60;;;5.80;;
76228;SDS011;65021;53.174;18.160;2024-02-23T00:39:07;9.40;;;5.20;;
76228;SDS011;65021;53.174;18.160;2024-02-23T00:41:36;9.50;;;5.00;;
76228;SDS011;65021;53.174;18.160;2024-02-23T00:44:02;12.00;;;5.90;;
76228;SDS011;65021;53.174;18.160;2024-02-23T00:46:29;12.10;;;6.50;;
76228;SDS011;65021;53.174;18.160;2024-02-23T00:48:55;13.20;;;6.70;;
76228;SDS011;65021;53.174;18.160;2024-02-23T00:51:21;11.10;;;5.80;;
76228;SDS011;65021;53.174;18.160;2024-02-23T00:53:47;11.10;;;5.70;;
76228;SDS011;65021;53.174;18.160;2024-02-23T00:56:13;12.10;;;6.80;;
76228;SDS011;65021;53.174;18.160;2024-02-23T00:58:39;13.80;;;6.50;;
76228;SDS011;65021;53.174;18.160;2024-02-23T01:01:05;11.50;;;6.40;;
76228;SDS011;65021;53.174;18.160;2024-02-23T01:03:31;11.00;;;5.90;;
76228;SDS011;65021;53.174;18.160;2024-02-23T01:05:57;9.20;;;5.00;;
76228;SDS011;65021;53.174;18.160;2024-02-23T01:08:23;12.80;;;6.50;;
76228;SDS011;65021;53.174;18.160;2024-02-23T01:10:49;13.30;;;6.30;;
76228;SDS011;65021;53.174;18.160;2024-02-23T01:13:15;11.20;;;5.30;;
76228;SDS011;65021;53.174;18.160;2024-02-23T01:15:41;9.80;;;5.80;;
76228;SDS011;65021;53.174;18.160;2024-02-23T01:18:07;17.30;;;6.30;;
76228;SDS011;65021;53.174;18.160;2024-02-23T01:20:33;10.10;;;5.40;;
76228;SDS011;65021;53.174;18.160;2024-02-23T01:23:00;10.30;;;5.50;;
76228;SDS011;65021;53.174;18.160;2024-02-23T01:25:26;12.30;;;5.90;;
76228;SDS011;65021;53.174;18.160;2024-02-23T01:27:52;10.70;;;5.30;;
76228;SDS011;65021;53.174;18.160;2024-02-23T01:30:18;9.80;;;4.90;;
76228;SDS011;65021;53.174;18.160;2024-02-23T01:32:44;12.30;;;5.90;;
76228;SDS011;65021;53.174;18.160;2024-02-23T01:35:11;13.10;;;6.40;;
76228;SDS011;65021;53.174;18.160;2024-02-23T01:37:37;10.10;;;4.90;;
76228;SDS011;65021;53.174;18.160;2024-02-23T01:40:03;11.80;;;6.20;;
76228;SDS011;65021;53.174;18.160;2024-02-23T01:42:29;11.50;;;6.00;;
76228;SDS011;65021;53.174;18.160;2024-02-23T01:44:55;13.00;;;5.90;;
76228;SDS011;65021;53.174;18.160;2024-02-23T01:47:22;10.30;;;5.70;;
76228;SDS011;65021;53.174;18.160;2024-02-23T01:52:18;11.10;;;5.60;;
76228;SDS011;65021;53.174;18.160;2024-02-23T01:54:44;13.20;;;5.30;;
76228;SDS011;65021;53.174;18.160;2024-02-23T01:57:10;11.70;;;6.20;;
76228;SDS011;65021;53.174;18.160;2024-02-23T01:59:37;11.30;;;5.60;;
76228;SDS011;65021;53.174;18.160;2024-02-23T02:02:04;9.60;;;4.30;;
76228;SDS011;65021;53.174;18.160;2024-02-23T02:04:30;11.10;;;5.80;;
76228;SDS011;65021;53.174;18.160;2024-02-23T02:06:59;12.20;;;6.30;;
76228;SDS011;65021;53.174;18.160;2024-02-23T02:09:26;11.60;;;5.20;;
76228;SDS011;65021;53.174;18.160;2024-02-23T02:11:52;11.30;;;5.70;;
76228;SDS011;65021;53.174;18.160;2024-02-23T02:14:18;11.10;;;5.60;;
76228;SDS011;65021;53.174;18.160;2024-02-23T02:16:45;9.20;;;5.30;;
76228;SDS011;65021;53.174;18.160;2024-02-23T02:19:11;10.00;;;6.00;;
76228;SDS011;65021;53.174;18.160;2024-02-23T02:21:38;10.10;;;5.60;;
76228;SDS011;65021;53.174;18.160;2024-02-23T02:24:04;10.10;;;5.40;;
76228;SDS011;65021;53.174;18.160;2024-02-23T02:26:31;10.60;;;5.30;;
76228;SDS011;65021;53.174;18.160;2024-02-23T02:28:57;10.40;;;4.80;;
76228;SDS011;65021;53.174;18.160;2024-02-23T02:31:23;9.80;;;5.50;;
76228;SDS011;65021;53.174;18.160;2024-02-23T02:33:49;10.90;;;5.70;;
76228;SDS011;65021;53.174;18.160;2024-02-23T02:36:15;10.70;;;5.30;;
76228;SDS011;65021;53.174;18.160;2024-02-23T02:38:41;10.90;;;6.10;;
76228;SDS011;65021;53.174;18.160;2024-02-23T02:41:07;9.90;;;5.40;;
76228;SDS011;65021;53.174;18.160;2024-02-23T02:43:34;12.00;;;5.60;;
76228;SDS011;65021;53.174;18.160;2024-02-23T02:46:00;11.10;;;5.70;;
76228;SDS011;65021;53.174;18.160;2024-02-23T02:48:26;12.50;;;5.40;;
76228;SDS011;65021;53.174;18.160;2024-02-23T02:50:52;9.20;;;4.90;;
76228;SDS011;65021;53.174;18.160;2024-02-23T02:53:18;10.40;;;5.10;;
76228;SDS011;65021;53.174;18.160;2024-02-23T02:55:43;12.30;;;5.20;;
76228;SDS011;65021;53.174;18.160;2024-02-23T02:58:13;8.80;;;4.60;;
76228;SDS011;65021;53.174;18.160;2024-02-23T03:00:39;9.10;;;5.50;;
76228;SDS011;65021;53.174;18.160;2024-02-23T03:03:05;8.10;;;4.60;;
76228;SDS011;65021;53.174;18.160;2024-02-23T03:05:32;8.20;;;4.30;;
76228;SDS011;65021;53.174;18.160;2024-02-23T03:07:58;10.60;;;5.00;;
76228;SDS011;65021;53.174;18.160;2024-02-23T03:10:24;10.30;;;5.20;;
76228;SDS011;65021;53.174;18.160;2024-02-23T03:12:50;9.30;;;4.20;;
76228;SDS011;65021;53.174;18.160;2024-02-23T03:15:16;8.60;;;4.70;;
76228;SDS011;65021;53.174;18.160;2024-02-23T03:17:42;8.70;;;4.60;;
76228;SDS011;65021;53.174;18.160;2024-02-23T03:20:08;8.60;;;4.40;;
76228;SDS011;65021;53.174;18.160;2024-02-23T03:22:34;7.70;;;4.00;;
76228;SDS011;65021;53.174;18.160;2024-02-23T03:25:01;9.40;;;5.10;;
76228;SDS011;65021;53.174;18.160;2024-02-23T03:27:34;8.00;;;4.10;;
76228;SDS011;65021;53.174;18.160;2024-02-23T03:30:04;8.40;;;4.20;;
76228;SDS011;65021;53.174;18.160;2024-02-23T03:32:33;8.70;;;4.00;;
76228;SDS011;65021;53.174;18.160;2024-02-23T03:35:02;7.90;;;4.20;;
76228;SDS011;65021;53.174;18.160;2024-02-23T03:37:29;7.20;;;4.00;;
76228;SDS011;65021;53.174;18.160;2024-02-23T03:39:55;8.60;;;4.70;;
76228;SDS011;65021;53.174;18.160;2024-02-23T03:42:21;8.10;;;4.10;;
76228;SDS011;65021;53.174;18.160;2024-02-23T03:44:47;8.50;;;4.10;;
76228;SDS011;65021;53.174;18.160;2024-02-23T03:47:13;8.20;;;4.20;;
76228;SDS011;65021;53.174;18.160;2024-02-23T03:49:39;9.30;;;3.90;;
76228;SDS011;65021;53.174;18.160;2024-02-23T03:52:05;6.90;;;3.50;;
76228;SDS011;65021;53.174;18.160;2024-02-23T03:54:31;8.30;;;4.30;;
76228;SDS011;65021;53.174;18.160;2024-02-23T03:56:57;6.90;;;3.10;;
76228;SDS011;65021;53.174;18.160;2024-02-23T03:59:23;9.90;;;4.00;;
76228;SDS011;65021;53.174;18.160;2024-02-23T04:01:49;7.90;;;3.90;;
76228;SDS011;65021;53.174;18.160;2024-02-23T04:04:15;8.30;;;4.10;;
76228;SDS011;65021;53.174;18.160;2024-02-23T04:06:41;10.10;;;4.30;;
76228;SDS011;65021;53.174;18.160;2024-02-23T04:09:07;11.30;;;3.50;;
76228;SDS011;65021;53.174;18.160;2024-02-23T04:11:34;7.10;;;3.30;;
76228;SDS011;65021;53.174;18.160;2024-02-23T04:14:00;8.20;;;3.70;;
76228;SDS011;65021;53.174;18.160;2024-02-23T04:16:27;7.40;;;3.50;;
76228;SDS011;65021;53.174;18.160;2024-02-23T04:18:53;7.90;;;3.60;;
76228;SDS011;65021;53.174;18.160;2024-02-23T04:21:20;6.00;;;3.20;;
76228;SDS011;65021;53.174;18.160;2024-02-23T04:23:46;5.70;;;2.30;;
76228;SDS011;65021;53.174;18.160;2024-02-23T04:26:12;5.60;;;2.90;;
76228;SDS011;65021;53.174;18.160;2024-02-23T04:28:39;7.00;;;3.40;;
76228;SDS011;65021;53.174;18.160;2024-02-23T04:31:06;7.50;;;4.00;;
76228;SDS011;65021;53.174;18.160;2024-02-23T04:33:34;7.30;;;3.00;;
76228;SDS011;65021;53.174;18.160;2024-02-23T04:36:01;6.90;;;3.30;;
76228;SDS011;65021;53.174;18.160;2024-02-23T04:38:28;6.70;;;3.10;;
76228;SDS011;65021;53.174;18.160;2024-02-23T04:40:55;6.60;;;3.30;;
76228;SDS011;65021;53.174;18.160;2024-02-23T04:43:22;6.10;;;3.00;;
76228;SDS011;65021;53.174;18.160;2024-02-23T04:45:50;6.00;;;3.10;;
76228;SDS011;65021;53.174;18.160;2024-02-23T04:48:16;6.40;;;2.90;;
76228;SDS011;65021;53.174;18.160;2024-02-23T04:50:42;7.50;;;3.50;;
76228;SDS011;65021;53.174;18.160;2024-02-23T04:53:08;5.10;;;2.60;;
76228;SDS011;65021;53.174;18.160;2024-02-23T04:55:34;6.10;;;2.80;;
76228;SDS011;65021;53.174;18.160;2024-02-23T04:58:00;5.00;;;2.70;;
76228;SDS011;65021;53.174;18.160;2024-02-23T05:00:26;5.90;;;2.70;;
76228;SDS011;65021;53.174;18.160;2024-02-23T05:03:01;5.70;;;2.80;;
76228;SDS011;65021;53.174;18.160;2024-02-23T05:05:30;9.50;;;3.10;;
76228;SDS011;65021;53.174;18.160;2024-02-23T05:07:57;6.40;;;2.60;;
76228;SDS011;65021;53.174;18.160;2024-02-23T05:10:23;5.90;;;2.60;;
76228;SDS011;65021;53.174;18.160;2024-02-23T05:12:49;7.40;;;2.80;;
76228;SDS011;65021;53.174;18.160;2024-02-23T05:15:15;4.80;;;2.30;;
76228;SDS011;65021;53.174;18.160;2024-02-23T05:17:41;5.00;;;2.20;;
76228;SDS011;65021;53.174;18.160;2024-02-23T05:20:07;5.60;;;2.70;;
76228;SDS011;65021;53.174;18.160;2024-02-23T05:22:38;5.20;;;2.60;;
76228;SDS011;65021;53.174;18.160;2024-02-23T05:25:05;5.90;;;2.50;;
76228;SDS011;65021;53.174;18.160;2024-02-23T05:27:32;6.50;;;2.30;;
76228;SDS011;65021;53.174;18.160;2024-02-23T05:29:58;4.30;;;2.00;;
76228;SDS011;65021;53.174;18.160;2024-02-23T05:32:24;4.60;;;2.30;;
76228;SDS011;65021;53.174;18.160;2024-02-23T05:34:50;3.90;;;1.80;;
76228;SDS011;65021;53.174;18.160;2024-02-23T05:37:19;5.00;;;2.10;;
76228;SDS011;65021;53.174;18.160;2024-02-23T05:39:46;5.30;;;2.20;;
76228;SDS011;65021;53.174;18.160;2024-02-23T05:42:12;4.70;;;2.00;;
76228;SDS011;65021;53.174;18.160;2024-02-23T05:44:38;3.80;;;1.40;;
76228;SDS011;65021;53.174;18.160;2024-02-23T05:47:05;4.30;;;1.40;;
76228;SDS011;65021;53.174;18.160;2024-02-23T05:49:31;3.30;;;1.30;;
76228;SDS011;65021;53.174;18.160;2024-02-23T05:51:57;3.50;;;1.40;;
76228;SDS011;65021;53.174;18.160;2024-02-23T05:54:23;5.40;;;1.40;;
76228;SDS011;65021;53.174;18.160;2024-02-23T05:56:49;3.60;;;1.30;;
76228;SDS011;65021;53.174;18.160;2024-02-23T05:59:15;3.70;;;1.40;;
76228;SDS011;65021;53.174;18.160;2024-02-23T06:01:41;4.40;;;1.30;;
76228;SDS011;65021;53.174;18.160;2024-02-23T06:04:07;3.00;;;1.20;;
76228;SDS011;65021;53.174;18.160;2024-02-23T06:06:33;4.30;;;1.20;;
76228;SDS011;65021;53.174;18.160;2024-02-23T06:08:59;3.10;;;1.30;;
76228;SDS011;65021;53.174;18.160;2024-02-23T06:11:25;3.80;;;1.40;;
76228;SDS011;65021;53.174;18.160;2024-02-23T06:13:51;4.10;;;1.30;;
76228;SDS011;65021;53.174;18.160;2024-02-23T06:16:17;3.60;;;1.50;;
76228;SDS011;65021;53.174;18.160;2024-02-23T06:18:43;3.60;;;1.30;;
76228;SDS011;65021;53.174;18.160;2024-02-23T06:21:16;3.40;;;1.70;;
76228;SDS011;65021;53.174;18.160;2024-02-23T06:23:43;3.60;;;1.20;;
76228;SDS011;65021;53.174;18.160;2024-02-23T06:26:09;4.40;;;1.40;;
76228;SDS011;65021;53.174;18.160;2024-02-23T06:28:36;3.10;;;1.10;;
76228;SDS011;65021;53.174;18.160;2024-02-23T06:31:05;3.40;;;1.30;;
76228;SDS011;65021;53.174;18.160;2024-02-23T06:33:31;2.80;;;1.20;;
76228;SDS011;65021;53.174;18.160;2024-02-23T06:35:57;4.40;;;1.50;;
76228;SDS011;65021;53.174;18.160;2024-02-23T06:38:23;4.20;;;1.50;;
76228;SDS011;65021;53.174;18.160;2024-02-23T06:40:49;3.50;;;1.30;;
76228;SDS011;65021;53.174;18.160;2024-02-23T06:43:15;3.10;;;1.10;;
76228;SDS011;65021;53.174;18.160;2024-02-23T06:45:41;3.80;;;1.50;;
76228;SDS011;65021;53.174;18.160;2024-02-23T06:48:07;4.40;;;1.40;;
76228;SDS011;65021;53.174;18.160;2024-02-23T06:50:33;2.50;;;0.90;;
76228;SDS011;65021;53.174;18.160;2024-02-23T06:53:00;3.00;;;1.00;;
76228;SDS011;65021;53.174;18.160;2024-02-23T06:55:28;2.10;;;0.90;;
76228;SDS011;65021;53.174;18.160;2024-02-23T06:57:54;2.60;;;1.00;;
76228;SDS011;65021;53.174;18.160;2024-02-23T07:00:20;2.60;;;0.90;;
76228;SDS011;65021;53.174;18.160;2024-02-23T07:05:15;1.50;;;0.70;;
76228;SDS011;65021;53.174;18.160;2024-02-23T07:07:41;3.80;;;1.10;;
76228;SDS011;65021;53.174;18.160;2024-02-23T07:10:08;2.80;;;0.90;;
76228;SDS011;65021;53.174;18.160;2024-02-23T07:12:34;3.40;;;1.00;;
76228;SDS011;65021;53.174;18.160;2024-02-23T07:15:00;1.80;;;0.60;;
76228;SDS011;65021;53.174;18.160;2024-02-23T07:17:27;4.70;;;0.90;;
76228;SDS011;65021;53.174;18.160;2024-02-23T07:19:53;1.80;;;0.70;;
76228;SDS011;65021;53.174;18.160;2024-02-23T07:22:19;2.20;;;0.70;;
76228;SDS011;65021;53.174;18.160;2024-02-23T07:24:48;1.90;;;0.70;;
76228;SDS011;65021;53.174;18.160;2024-02-23T07:27:15;1.90;;;0.70;;
76228;SDS011;65021;53.174;18.160;2024-02-23T07:29:40;3.20;;;0.90;;
76228;SDS011;65021;53.174;18.160;2024-02-23T07:32:06;2.50;;;0.80;;
76228;SDS011;65021;53.174;18.160;2024-02-23T07:34:32;2.00;;;0.60;;
76228;SDS011;65021;53.174;18.160;2024-02-23T07:36:58;2.80;;;0.80;;
76228;SDS011;65021;53.174;18.160;2024-02-23T07:39:24;2.80;;;0.70;;
76228;SDS011;65021;53.174;18.160;2024-02-23T07:41:50;1.70;;;0.60;;
76228;SDS011;65021;53.174;18.160;2024-02-23T07:44:16;2.10;;;0.60;;
76228;SDS011;65021;53.174;18.160;2024-02-23T07:46:42;1.10;;;0.40;;
76228;SDS011;65021;53.174;18.160;2024-02-23T07:49:08;2.50;;;0.80;;
76228;SDS011;65021;53.174;18.160;2024-02-23T07:51:35;2.10;;;0.60;;
76228;SDS011;65021;53.174;18.160;2024-02-23T07:54:01;1.60;;;0.40;;
76228;SDS011;65021;53.174;18.160;2024-02-23T07:56:27;1.80;;;0.50;;
76228;SDS011;65021;53.174;18.160;2024-02-23T07:58:54;5.30;;;0.70;;
76228;SDS011;65021;53.174;18.160;2024-02-23T08:01:20;1.60;;;0.50;;
76228;SDS011;65021;53.174;18.160;2024-02-23T08:03:45;2.10;;;0.50;;
76228;SDS011;65021;53.174;18.160;2024-02-23T08:06:11;0.30;;;0.30;;
76228;SDS011;65021;53.174;18.160;2024-02-23T08:08:38;1.80;;;0.40;;
76228;SDS011;65021;53.174;18.160;2024-02-23T08:11:04;1.20;;;0.40;;
76228;SDS011;65021;53.174;18.160;2024-02-23T08:13:30;1.00;;;0.20;;
76228;SDS011;65021;53.174;18.160;2024-02-23T08:15:57;1.30;;;0.50;;
76228;SDS011;65021;53.174;18.160;2024-02-23T08:18:23;2.30;;;0.60;;
76228;SDS011;65021;53.174;18.160;2024-02-23T08:20:50;2.60;;;0.90;;
76228;SDS011;65021;53.174;18.160;2024-02-23T08:23:15;1.90;;;0.40;;
76228;SDS011;65021;53.174;18.160;2024-02-23T08:25:41;2.30;;;0.60;;
76228;SDS011;65021;53.174;18.160;2024-02-23T08:28:07;2.60;;;0.70;;
76228;SDS011;65021;53.174;18.160;2024-02-23T08:30:33;2.10;;;0.40;;
76228;SDS011;65021;53.174;18.160;2024-02-23T08:32:59;1.40;;;0.40;;
76228;SDS011;65021;53.174;18.160;2024-02-23T08:35:26;1.40;;;0.40;;
76228;SDS011;65021;53.174;18.160;2024-02-23T08:37:52;1.20;;;0.60;;
76228;SDS011;65021;53.174;18.160;2024-02-23T08:40:18;2.60;;;0.80;;
76228;SDS011;65021;53.174;18.160;2024-02-23T08:42:44;1.80;;;0.50;;
76228;SDS011;65021;53.174;18.160;2024-02-23T08:45:09;1.50;;;0.70;;
76228;SDS011;65021;53.174;18.160;2024-02-23T08:47:39;1.60;;;0.50;;
76228;SDS011;65021;53.174;18.160;2024-02-23T08:50:07;3.40;;;0.50;;
76228;SDS011;65021;53.174;18.160;2024-02-23T08:52:33;3.10;;;0.70;;
76228;SDS011;65021;53.174;18.160;2024-02-23T08:54:59;1.90;;;0.40;;
76228;SDS011;65021;53.174;18.160;2024-02-23T08:57:27;1.70;;;0.60;;
76228;SDS011;65021;53.174;18.160;2024-02-23T08:59:56;2.30;;;0.80;;
76228;SDS011;65021;53.174;18.160;2024-02-23T09:02:26;2.50;;;0.60;;
76228;SDS011;65021;53.174;18.160;2024-02-23T09:04:52;2.00;;;0.50;;
76228;SDS011;65021;53.174;18.160;2024-02-23T09:07:18;4.10;;;0.70;;
76228;SDS011;65021;53.174;18.160;2024-02-23T09:09:47;1.80;;;0.70;;
76228;SDS011;65021;53.174;18.160;2024-02-23T09:12:14;0.90;;;0.40;;
76228;SDS011;65021;53.174;18.160;2024-02-23T09:14:44;1.70;;;0.60;;
76228;SDS011;65021;53.174;18.160;2024-02-23T09:17:10;0.80;;;0.40;;
76228;SDS011;65021;53.174;18.160;2024-02-23T09:19:38;2.90;;;0.60;;
76228;SDS011;65021;53.174;18.160;2024-02-23T09:22:07;3.80;;;0.70;;
76228;SDS011;65021;53.174;18.160;2024-02-23T09:24:33;2.70;;;0.80;;
76228;SDS011;65021;53.174;18.160;2024-02-23T09:26:59;1.10;;;0.30;;
76228;SDS011;65021;53.174;18.160;2024-02-23T09:29:28;2.30;;;0.70;;
76228;SDS011;65021;53.174;18.160;2024-02-23T09:31:54;2.40;;;0.60;;
76228;SDS011;65021;53.174;18.160;2024-02-23T09:34:20;4.20;;;0.70;;
76228;SDS011;65021;53.174;18.160;2024-02-23T09:36:46;5.00;;;1.00;;
76228;SDS011;65021;53.174;18.160;2024-02-23T09:39:12;2.40;;;0.60;;
76228;SDS011;65021;53.174;18.160;2024-02-23T09:41:38;2.60;;;0.50;;
76228;SDS011;65021;53.174;18.160;2024-02-23T09:44:05;1.80;;;0.50;;
76228;SDS011;65021;53.174;18.160;2024-02-23T09:46:33;1.70;;;0.50;;
76228;SDS011;65021;53.174;18.160;2024-02-23T09:49:01;2.60;;;0.70;;
76228;SDS011;65021;53.174;18.160;2024-02-23T09:51:29;1.90;;;0.60;;
76228;SDS011;65021;53.174;18.160;2024-02-23T09:53:55;3.20;;;0.70;;
76228;SDS011;65021;53.174;18.160;2024-02-23T09:56:23;4.00;;;0.80;;
76228;SDS011;65021;53.174;18.160;2024-02-23T09:58:53;2.30;;;0.70;;
76228;SDS011;65021;53.174;18.160;2024-02-23T10:01:28;2.80;;;0.70;;
76228;SDS011;65021;53.174;18.160;2024-02-23T10:03:59;2.80;;;0.90;;
76228;SDS011;65021;53.174;18.160;2024-02-23T10:06:26;3.30;;;0.70;;
76228;SDS011;65021;53.174;18.160;2024-02-23T10:08:53;2.70;;;0.80;;
76228;SDS011;65021;53.174;18.160;2024-02-23T10:11:23;2.50;;;0.60;;
76228;SDS011;65021;53.174;18.160;2024-02-23T10:13:49;2.80;;;0.70;;
76228;SDS011;65021;53.174;18.160;2024-02-23T10:16:18;2.50;;;0.70;;
76228;SDS011;65021;53.174;18.160;2024-02-23T10:18:47;2.70;;;0.70;;
76228;SDS011;65021;53.174;18.160;2024-02-23T10:21:17;3.80;;;0.80;;
76228;SDS011;65021;53.174;18.160;2024-02-23T10:23:44;2.30;;;0.70;;
76228;SDS011;65021;53.174;18.160;2024-02-23T10:26:10;2.70;;;0.70;;
76228;SDS011;65021;53.174;18.160;2024-02-23T10:28:37;2.20;;;0.70;;
76228;SDS011;65021;53.174;18.160;2024-02-23T10:31:06;1.50;;;0.50;;
76228;SDS011;65021;53.174;18.160;2024-02-23T10:33:32;2.10;;;0.40;;
76228;SDS011;65021;53.174;18.160;2024-02-23T10:36:00;3.40;;;0.40;;
76228;SDS011;65021;53.174;18.160;2024-02-23T10:38:27;1.20;;;0.40;;
76228;SDS011;65021;53.174;18.160;2024-02-23T10:40:58;1.70;;;0.60;;
76228;SDS011;65021;53.174;18.160;2024-02-23T10:43:33;2.30;;;0.60;;
76228;SDS011;65021;53.174;18.160;2024-02-23T10:46:01;2.00;;;0.60;;
76228;SDS011;65021;53.174;18.160;2024-02-23T10:48:33;1.80;;;0.70;;
76228;SDS011;65021;53.174;18.160;2024-02-23T10:51:01;1.80;;;0.60;;
76228;SDS011;65021;53.174;18.160;2024-02-23T10:53:29;2.40;;;0.50;;
76228;SDS011;65021;53.174;18.160;2024-02-23T10:55:57;3.10;;;0.60;;
76228;SDS011;65021;53.174;18.160;2024-02-23T10:58:26;2.20;;;0.60;;
76228;SDS011;65021;53.174;18.160;2024-02-23T11:00:53;1.90;;;0.50;;
76228;SDS011;65021;53.174;18.160;2024-02-23T11:03:33;1.40;;;0.50;;
76228;SDS011;65021;53.174;18.160;2024-02-23T11:06:02;0.70;;;0.20;;
76228;SDS011;65021;53.174;18.160;2024-02-23T11:08:28;1.20;;;0.30;;
76228;SDS011;65021;53.174;18.160;2024-02-23T11:10:54;1.80;;;0.50;;
76228;SDS011;65021;53.174;18.160;2024-02-23T11:13:30;1.30;;;0.40;;
76228;SDS011;65021;53.174;18.160;2024-02-23T11:16:03;1.40;;;0.40;;
76228;SDS011;65021;53.174;18.160;2024-02-23T11:18:34;1.40;;;0.40;;
76228;SDS011;65021;53.174;18.160;2024-02-23T11:21:04;2.70;;;0.60;;
76228;SDS011;65021;53.174;18.160;2024-02-23T11:23:41;2.80;;;0.90;;
76228;SDS011;65021;53.174;18.160;2024-02-23T11:26:11;2.80;;;0.70;;
76228;SDS011;65021;53.174;18.160;2024-02-23T11:31:22;3.80;;;0.70;;
76228;SDS011;65021;53.174;18.160;2024-02-23T11:33:53;2.20;;;0.70;;
76228;SDS011;65021;53.174;18.160;2024-02-23T11:36:23;1.00;;;0.30;;
76228;SDS011;65021;53.174;18.160;2024-02-23T11:38:53;2.80;;;0.80;;
76228;SDS011;65021;53.174;18.160;2024-02-23T11:41:22;1.40;;;0.60;;
76228;SDS011;65021;53.174;18.160;2024-02-23T11:43:49;1.20;;;0.40;;
76228;SDS011;65021;53.174;18.160;2024-02-23T11:46:16;2.50;;;0.50;;
76228;SDS011;65021;53.174;18.160;2024-02-23T11:48:43;4.70;;;0.50;;
76228;SDS011;65021;53.174;18.160;2024-02-23T11:51:10;2.10;;;0.60;;
76228;SDS011;65021;53.174;18.160;2024-02-23T11:53:39;1.00;;;0.30;;
76228;SDS011;65021;53.174;18.160;2024-02-23T11:56:05;1.80;;;0.50;;
76228;SDS011;65021;53.174;18.160;2024-02-23T11:58:32;2.50;;;0.60;;
76228;SDS011;65021;53.174;18.160;2024-02-23T12:01:02;2.90;;;0.70;;
76228;SDS011;65021;53.174;18.160;2024-02-23T12:03:29;1.80;;;0.50;;
76228;SDS011;65021;53.174;18.160;2024-02-23T12:06:01;5.10;;;0.80;;
76228;SDS011;65021;53.174;18.160;2024-02-23T12:08:29;3.70;;;0.80;;
76228;SDS011;65021;53.174;18.160;2024-02-23T12:11:06;1.90;;;0.50;;
76228;SDS011;65021;53.174;18.160;2024-02-23T12:13:37;1.90;;;0.60;;
76228;SDS011;65021;53.174;18.160;2024-02-23T12:16:04;1.80;;;0.60;;
76228;SDS011;65021;53.174;18.160;2024-02-23T12:18:32;3.90;;;0.70;;
76228;SDS011;65021;53.174;18.160;2024-02-23T12:20:59;1.90;;;0.60;;
76228;SDS011;65021;53.174;18.160;2024-02-23T12:23:41;1.20;;;0.30;;
76228;SDS011;65021;53.174;18.160;2024-02-23T12:26:08;2.60;;;0.80;;
76228;SDS011;65021;53.174;18.160;2024-02-23T12:28:35;2.60;;;0.50;;
76228;SDS011;65021;53.174;18.160;2024-02-23T12:31:03;2.40;;;0.60;;
76228;SDS011;65021;53.174;18.160;2024-02-23T12:33:34;3.50;;;0.80;;
76228;SDS011;65021;53.174;18.160;2024-02-23T12:36:03;2.20;;;0.70;;
76228;SDS011;65021;53.174;18.160;2024-02-23T12:38:30;2.20;;;0.70;;
76228;SDS011;65021;53.174;18.160;2024-02-23T12:40:56;2.50;;;0.60;;
76228;SDS011;65021;53.174;18.160;2024-02-23T12:43:23;1.80;;;0.40;;
76228;SDS011;65021;53.174;18.160;2024-02-23T12:45:52;1.90;;;0.60;;
76228;SDS011;65021;53.174;18.160;2024-02-23T12:48:20;2.10;;;0.70;;
76228;SDS011;65021;53.174;18.160;2024-02-23T12:50:46;2.40;;;0.70;;
76228;SDS011;65021;53.174;18.160;2024-02-23T12:56:17;2.20;;;0.70;;
76228;SDS011;65021;53.174;18.160;2024-02-23T12:58:43;3.20;;;0.90;;
76228;SDS011;65021;53.174;18.160;2024-02-23T13:01:10;2.10;;;0.70;;
76228;SDS011;65021;53.174;18.160;2024-02-23T13:03:36;2.50;;;0.60;;
76228;SDS011;65021;53.174;18.160;2024-02-23T13:06:06;2.00;;;0.50;;
76228;SDS011;65021;53.174;18.160;2024-02-23T13:08:32;2.40;;;0.60;;
76228;SDS011;65021;53.174;18.160;2024-02-23T13:11:00;2.40;;;0.70;;
76228;SDS011;65021;53.174;18.160;2024-02-23T13:13:26;2.80;;;0.80;;
76228;SDS011;65021;53.174;18.160;2024-02-23T13:15:53;2.20;;;0.80;;
76228;SDS011;65021;53.174;18.160;2024-02-23T13:18:20;1.70;;;0.60;;
76228;SDS011;65021;53.174;18.160;2024-02-23T13:20:46;2.00;;;0.70;;
76228;SDS011;65021;53.174;18.160;2024-02-23T13:23:12;2.60;;;0.80;;
76228;SDS011;65021;53.174;18.160;2024-02-23T13:25:38;4.20;;;0.70;;
76228;SDS011;65021;53.174;18.160;2024-02-23T13:28:05;1.80;;;0.60;;
76228;SDS011;65021;53.174;18.160;2024-02-23T13:30:32;1.80;;;0.60;;
76228;SDS011;65021;53.174;18.160;2024-02-23T13:32:58;3.10;;;0.70;;
76228;SDS011;65021;53.174;18.160;2024-02-23T13:35:28;2.20;;;0.70;;
76228;SDS011;65021;53.174;18.160;2024-02-23T13:37:55;1.60;;;0.60;;
76228;SDS011;65021;53.174;18.160;2024-02-23T13:40:23;2.50;;;0.70;;
76228;SDS011;65021;53.174;18.160;2024-02-23T13:42:49;2.20;;;0.60;;
76228;SDS011;65021;53.174;18.160;2024-02-23T13:45:15;2.70;;;0.80;;
76228;SDS011;65021;53.174;18.160;2024-02-23T13:47:42;2.10;;;0.80;;
76228;SDS011;65021;53.174;18.160;2024-02-23T13:50:13;2.30;;;0.70;;
76228;SDS011;65021;53.174;18.160;2024-02-23T13:52:40;4.90;;;0.60;;
76228;SDS011;65021;53.174;18.160;2024-02-23T13:55:06;3.00;;;1.10;;
76228;SDS011;65021;53.174;18.160;2024-02-23T13:57:32;2.40;;;0.90;;
76228;SDS011;65021;53.174;18.160;2024-02-23T13:59:58;3.00;;;0.70;;
76228;SDS011;65021;53.174;18.160;2024-02-23T14:02:24;2.80;;;0.80;;
76228;SDS011;65021;53.174;18.160;2024-02-23T14:05:01;6.00;;;1.10;;
76228;SDS011;65021;53.174;18.160;2024-02-23T14:07:29;6.30;;;1.10;;
76228;SDS011;65021;53.174;18.160;2024-02-23T14:09:55;2.50;;;0.70;;
76228;SDS011;65021;53.174;18.160;2024-02-23T14:12:21;3.30;;;0.80;;
76228;SDS011;65021;53.174;18.160;2024-02-23T14:14:47;2.70;;;0.80;;
76228;SDS011;65021;53.174;18.160;2024-02-23T14:17:12;3.30;;;1.20;;
76228;SDS011;65021;53.174;18.160;2024-02-23T14:19:39;2.60;;;0.80;;
76228;SDS011;65021;53.174;18.160;2024-02-23T14:22:05;2.90;;;0.70;;
76228;SDS011;65021;53.174;18.160;2024-02-23T14:24:32;4.00;;;1.30;;
76228;SDS011;65021;53.174;18.160;2024-02-23T14:26:58;4.10;;;1.10;;
76228;SDS011;65021;53.174;18.160;2024-02-23T14:29:24;2.90;;;0.80;;
76228;SDS011;65021;53.174;18.160;2024-02-23T14:43:14;2.60;;;0.90;;
76228;SDS011;65021;53.174;18.160;2024-02-23T14:45:40;3.60;;;1.10;;
76228;SDS011;65021;53.174;18.160;2024-02-23T14:48:07;3.70;;;1.30;;
76228;SDS011;65021;53.174;18.160;2024-02-23T14:50:33;4.90;;;1.20;;
76228;SDS011;65021;53.174;18.160;2024-02-23T14:52:59;5.20;;;1.10;;
76228;SDS011;65021;53.174;18.160;2024-02-23T14:55:27;4.50;;;1.00;;